Terminal Aerodrome Forecast
Issued by NWS Twin Cities, MN

Home | Current Version | Previous Version | Text Only | Print | Product List | Glossary Off
Versions: 1 2 3 4 5 6 7 8 9 10 11 12

000
FTUS43 KMPX 081700
TAFEAU
TAF
KEAU 081738Z 0818/0918 29013G20KT P6SM VCSH BKN050
     FM090000 31005KT P6SM FEW060
     FM091000 28003KT P6SM SKC
     FM091600 29009KT P6SM FEW050 SCT100=

USA.gov is the U.S. government's official web portal to all federal, state and local government web resources and services.